Time;durP1;ratioP1;P1;durP2;ratioP2;P2;SDS_P1;SDS_P2;PMS_P1;PMS_P2;Temp;Humidity;BMP_temperature;BMP_pressure;BME280_temperature;BME280_humidity;BME280_pressure;Samples;Min_cycle;Max_cycle;Signal;HPM_P1;HPM_P2
2023/01/06 05:01:15;;;;;;;4.18;3.50;;;8.90;99.90;;;;;;5520743;23;20675;-69
2023/01/06 05:03:42;;;;;;;5.43;3.92;;;9.00;99.90;;;;;;4913758;29;20224;-67
2023/01/06 05:06:11;;;;;;;7.63;4.68;;;9.00;99.90;;;;;;4911291;29;20213;-68
2023/01/06 05:08:38;;;;;;;4.43;3.30;;;9.00;99.90;;;;;;4908092;29;20568;-69
2023/01/06 05:11:06;;;;;;;5.88;4.40;;;9.00;99.90;;;;;;4909747;29;20233;-68
2023/01/06 05:13:34;;;;;;;4.97;2.35;;;9.00;99.90;;;;;;4905506;29;20221;-69
2023/01/06 05:16:01;;;;;;;2.97;2.78;;;9.00;99.90;;;;;;4910626;29;20220;-69
2023/01/06 05:18:29;;;;;;;4.70;3.72;;;9.00;99.90;;;;;;4898574;29;20202;-69
2023/01/06 05:20:56;;;;;;;5.60;3.20;;;9.10;99.90;;;;;;4912765;29;20244;-69
2023/01/06 05:23:22;;;;;;;5.68;3.13;;;9.10;99.90;;;;;;4912606;29;20203;-69
2023/01/06 05:25:50;;;;;;;4.15;3.85;;;9.10;99.90;;;;;;4909667;29;20222;-68
2023/01/06 05:28:18;;;;;;;4.03;3.67;;;9.10;99.90;;;;;;4910263;29;20725;-69
2023/01/06 05:30:45;;;;;;;5.10;3.30;;;9.10;99.90;;;;;;4916899;29;20231;-68
2023/01/06 05:33:11;;;;;;;7.20;2.97;;;9.10;99.90;;;;;;4914956;29;20747;-68
2023/01/06 05:35:40;;;;;;;3.75;3.03;;;9.10;99.90;;;;;;4898795;29;20214;-69
2023/01/06 05:38:06;;;;;;;4.28;3.92;;;9.10;99.90;;;;;;4913433;29;20232;-68
2023/01/06 05:40:34;;;;;;;3.53;2.25;;;9.10;99.90;;;;;;4916779;29;20264;-69
2023/01/06 05:43:01;;;;;;;7.00;4.38;;;9.20;99.90;;;;;;4900442;29;20223;-67
2023/01/06 05:45:28;;;;;;;4.80;3.35;;;9.20;99.90;;;;;;4910066;29;20232;-68
2023/01/06 05:47:54;;;;;;;3.80;3.35;;;9.20;99.90;;;;;;4909432;29;20218;-70
2023/01/06 05:50:21;;;;;;;3.63;3.33;;;9.20;99.90;;;;;;4916645;29;20205;-69
2023/01/06 05:52:49;;;;;;;6.72;3.38;;;9.20;99.90;;;;;;4904021;29;20214;-68
2023/01/06 05:55:16;;;;;;;3.65;2.83;;;9.20;99.90;;;;;;4914322;29;20221;-69
2023/01/06 05:57:43;;;;;;;4.40;3.95;;;9.30;99.90;;;;;;4908520;29;20360;-69
2023/01/06 06:00:11;;;;;;;5.68;3.33;;;9.30;99.90;;;;;;4915173;29;20225;-67
2023/01/06 06:02:38;;;;;;;6.07;4.43;;;9.30;99.90;;;;;;4911158;29;20650;-68
2023/01/06 06:05:05;;;;;;;5.22;4.00;;;9.30;99.90;;;;;;4909734;29;20198;-69
2023/01/06 06:07:32;;;;;;;8.38;3.60;;;9.30;99.90;;;;;;4914369;29;20594;-69
2023/01/06 06:10:00;;;;;;;7.28;3.10;;;9.30;99.90;;;;;;4914982;29;20206;-69
2023/01/06 06:12:26;;;;;;;12.40;6.03;;;9.30;99.90;;;;;;4910840;29;20237;-68
2023/01/06 06:14:53;;;;;;;8.73;2.95;;;9.30;99.90;;;;;;4905372;29;20660;-70
2023/01/06 06:17:20;;;;;;;5.20;4.53;;;9.30;99.90;;;;;;4908521;29;20201;-68
2023/01/06 06:19:46;;;;;;;4.30;3.88;;;9.40;99.90;;;;;;4914468;29;20547;-68
2023/01/06 06:22:13;;;;;;;4.10;3.80;;;9.40;99.90;;;;;;4910069;29;20241;-69
2023/01/06 06:24:40;;;;;;;8.48;3.15;;;9.40;99.90;;;;;;4901264;29;20207;-69
2023/01/06 06:27:08;;;;;;;4.72;4.32;;;9.40;99.90;;;;;;4914432;29;20561;-69
2023/01/06 06:29:35;;;;;;;5.85;3.95;;;9.40;99.90;;;;;;4911531;29;20584;-69
2023/01/06 06:32:01;;;;;;;11.45;4.90;;;9.40;99.90;;;;;;4918026;29;20236;-69
2023/01/06 06:34:28;;;;;;;2.65;2.38;;;9.40;99.90;;;;;;4925418;29;20206;-68
2023/01/06 06:36:55;;;;;;;6.25;4.90;;;9.40;99.90;;;;;;4921301;29;20213;-68
2023/01/06 06:39:22;;;;;;;6.07;3.60;;;9.40;99.90;;;;;;4919138;29;20210;-68
2023/01/06 06:41:48;;;;;;;3.50;3.30;;;9.40;99.90;;;;;;4919303;29;20245;-68
2023/01/06 06:44:16;;;;;;;3.60;3.05;;;9.40;99.90;;;;;;4912367;29;20206;-69
2023/01/06 06:46:43;;;;;;;7.38;2.30;;;9.40;99.90;;;;;;4910171;29;20683;-68
2023/01/06 06:49:10;;;;;;;4.25;3.90;;;9.40;99.90;;;;;;4906321;29;20209;-68
2023/01/06 06:51:37;;;;;;;2.53;2.42;;;9.40;99.90;;;;;;4912052;29;20247;-69
2023/01/06 06:54:04;;;;;;;4.85;4.50;;;9.40;99.90;;;;;;4915535;29;20676;-67
2023/01/06 06:56:31;;;;;;;4.50;3.17;;;9.50;99.90;;;;;;4908906;29;20210;-68
2023/01/06 06:58:58;;;;;;;7.90;5.70;;;9.40;99.90;;;;;;4906459;29;20533;-68
2023/01/06 07:01:26;;;;;;;5.57;3.63;;;9.40;99.90;;;;;;4910640;29;20236;-71
2023/01/06 07:03:53;;;;;;;5.47;4.43;;;9.50;99.90;;;;;;4907214;29;20210;-70
2023/01/06 07:06:22;;;;;;;5.32;4.45;;;9.50;99.90;;;;;;4914409;29;20217;-69
2023/01/06 07:08:49;;;;;;;13.57;4.18;;;9.50;99.90;;;;;;4908463;29;20229;-69
2023/01/06 07:11:16;;;;;;;7.03;4.78;;;9.50;99.90;;;;;;4906888;29;20600;-69
2023/01/06 07:13:43;;;;;;;9.07;5.53;;;9.40;99.90;;;;;;4909059;29;20652;-69
2023/01/06 07:16:10;;;;;;;6.85;3.70;;;9.50;99.90;;;;;;4905228;29;20238;-69
2023/01/06 07:18:39;;;;;;;5.15;4.70;;;9.50;99.90;;;;;;4914789;29;20725;-68
2023/01/06 07:21:07;;;;;;;7.68;6.00;;;9.50;99.90;;;;;;4912449;29;20638;-68
2023/01/06 07:23:34;;;;;;;8.77;5.55;;;9.50;99.90;;;;;;4913810;29;20830;-69
2023/01/06 07:26:02;;;;;;;7.28;5.80;;;9.50;99.90;;;;;;4912947;29;20236;-69
2023/01/06 07:28:30;;;;;;;6.97;5.10;;;9.50;99.90;;;;;;4907816;29;20209;-68
2023/01/06 07:30:57;;;;;;;7.32;3.45;;;9.50;99.90;;;;;;4908523;29;20589;-70
2023/01/06 07:33:24;;;;;;;4.28;3.75;;;9.50;99.90;;;;;;4914537;29;20590;-71
2023/01/06 07:35:54;;;;;;;7.15;5.10;;;9.50;99.90;;;;;;4909609;29;20214;-70
2023/01/06 07:38:21;;;;;;;5.95;5.28;;;9.60;99.90;;;;;;4906882;29;20206;-70
2023/01/06 07:40:48;;;;;;;9.13;5.30;;;9.60;99.90;;;;;;4912897;29;20248;-70
2023/01/06 07:43:16;;;;;;;6.38;5.72;;;9.60;99.90;;;;;;4910346;29;20590;-71
2023/01/06 07:45:45;;;;;;;3.63;3.42;;;9.50;99.90;;;;;;4910864;29;20564;-70
2023/01/06 07:48:12;;;;;;;6.85;4.75;;;9.60;99.90;;;;;;4911108;29;20212;-70
2023/01/06 07:50:39;;;;;;;7.95;4.95;;;9.50;99.90;;;;;;4910219;29;20682;-70
2023/01/06 07:53:07;;;;;;;5.50;4.57;;;9.60;99.90;;;;;;4905480;29;20324;-70
2023/01/06 07:55:33;;;;;;;11.13;5.53;;;9.50;99.90;;;;;;4914237;29;20264;-70
2023/01/06 07:58:04;;;;;;;3.75;3.00;;;9.60;99.90;;;;;;4909730;29;20663;-70
2023/01/06 08:00:31;;;;;;;3.80;3.35;;;9.60;99.90;;;;;;4910610;29;20311;-71
2023/01/06 08:02:58;;;;;;;4.05;3.75;;;9.60;99.90;;;;;;4910642;29;20586;-70
2023/01/06 08:05:24;;;;;;;4.60;4.25;;;9.60;99.90;;;;;;4895505;29;20214;-70
2023/01/06 08:07:51;;;;;;;4.53;3.92;;;9.50;99.90;;;;;;4897971;29;20215;-70
2023/01/06 08:10:20;;;;;;;3.45;3.15;;;9.60;99.90;;;;;;4912915;29;20224;-70
2023/01/06 08:12:46;;;;;;;5.63;3.75;;;9.60;99.90;;;;;;4907130;29;20216;-70
2023/01/06 08:15:13;;;;;;;15.20;4.10;;;9.60;99.90;;;;;;4906124;29;20216;-70
2023/01/06 08:17:40;;;;;;;7.88;4.97;;;9.60;99.90;;;;;;4910343;29;20236;-70
2023/01/06 08:20:08;;;;;;;6.65;4.28;;;9.60;99.90;;;;;;4910576;29;20216;-70
2023/01/06 08:22:35;;;;;;;4.18;3.70;;;9.60;99.90;;;;;;4902717;29;20326;-71
2023/01/06 08:25:02;;;;;;;3.08;2.70;;;9.60;99.90;;;;;;4900061;29;20315;-71
2023/01/06 08:27:30;;;;;;;3.58;3.25;;;9.60;99.90;;;;;;4912704;29;20210;-72
2023/01/06 08:29:57;;;;;;;7.57;4.47;;;9.60;99.90;;;;;;4913400;29;20231;-72
2023/01/06 08:32:23;;;;;;;3.83;3.55;;;9.60;99.90;;;;;;4908993;29;20236;-70
2023/01/06 08:34:50;;;;;;;6.13;5.03;;;9.60;99.90;;;;;;4903023;29;20224;-71
2023/01/06 08:37:17;;;;;;;5.75;3.15;;;9.60;99.90;;;;;;4909313;29;20210;-71
2023/01/06 08:39:44;;;;;;;5.90;4.78;;;9.60;99.90;;;;;;4905449;29;20217;-72
2023/01/06 08:42:12;;;;;;;3.92;3.80;;;9.60;99.90;;;;;;4907425;29;20244;-72
2023/01/06 08:44:40;;;;;;;38.47;16.40;;;9.70;99.90;;;;;;4911932;29;20214;-71
2023/01/06 08:47:06;;;;;;;41.03;21.83;;;9.70;99.90;;;;;;4902590;29;20211;-70
2023/01/06 08:49:33;;;;;;;7.88;5.63;;;9.70;99.90;;;;;;4900855;29;20218;-70
2023/01/06 08:52:00;;;;;;;9.57;4.65;;;9.70;99.90;;;;;;4895829;29;20233;-70
2023/01/06 08:54:28;;;;;;;5.00;4.40;;;9.70;99.90;;;;;;4896098;29;20221;-70
2023/01/06 08:56:55;;;;;;;6.45;3.85;;;9.70;99.90;;;;;;4913713;29;20269;-70
2023/01/06 08:59:22;;;;;;;12.75;6.22;;;9.70;99.90;;;;;;4907004;29;20225;-69
2023/01/06 09:01:50;;;;;;;14.43;6.57;;;9.70;99.90;;;;;;4905700;29;20257;-70
2023/01/06 09:04:17;;;;;;;9.20;8.45;;;9.70;99.90;;;;;;4907713;29;20672;-68
2023/01/06 09:06:46;;;;;;;6.80;4.03;;;9.80;99.90;;;;;;4916549;29;20216;-71
2023/01/06 09:09:13;;;;;;;1.55;1.52;;;9.70;99.90;;;;;;4901990;29;20241;-70
2023/01/06 09:11:41;;;;;;;6.93;4.07;;;9.70;99.90;;;;;;4914717;29;20236;-70
2023/01/06 09:14:08;;;;;;;2.80;2.60;;;9.70;99.90;;;;;;4917634;29;20678;-71
2023/01/06 09:16:35;;;;;;;3.78;3.45;;;9.70;99.90;;;;;;4914757;29;20213;-71
2023/01/06 09:19:03;;;;;;;2.72;2.63;;;9.80;99.90;;;;;;4916881;29;20281;-71
2023/01/06 09:21:29;;;;;;;10.82;5.78;;;9.80;99.90;;;;;;4914849;29;20223;-70
2023/01/06 09:23:56;;;;;;;6.05;3.53;;;9.80;99.90;;;;;;4905405;29;20221;-70
2023/01/06 09:26:23;;;;;;;3.03;2.83;;;9.80;99.90;;;;;;4914969;29;20210;-70
2023/01/06 09:28:49;;;;;;;2.33;1.95;;;9.80;99.90;;;;;;4914462;29;20219;-71
2023/01/06 09:31:17;;;;;;;3.33;2.20;;;9.90;99.90;;;;;;4903953;29;20233;-71
2023/01/06 09:33:44;;;;;;;2.67;2.47;;;9.90;99.90;;;;;;4909323;29;20598;-70
2023/01/06 09:36:12;;;;;;;4.53;4.13;;;9.90;99.90;;;;;;4907212;29;20309;-70
2023/01/06 09:38:39;;;;;;;1.25;1.15;;;9.90;99.90;;;;;;4905869;29;20795;-71
2023/01/06 09:41:23;;;;;;;3.50;3.30;;;10.00;99.90;;;;;;4910356;29;20594;-70
2023/01/06 09:43:53;;;;;;;3.45;2.10;;;10.00;99.90;;;;;;4907988;29;20217;-69
2023/01/06 09:46:26;;;;;;;3.33;3.13;;;10.00;99.90;;;;;;4913882;29;20213;-72
2023/01/06 09:48:59;;;;;;;5.88;5.18;;;10.00;99.90;;;;;;4901772;29;20583;-70
2023/01/06 09:51:28;;;;;;;2.10;2.00;;;9.90;99.90;;;;;;4908749;29;20225;-71
2023/01/06 09:54:01;;;;;;;2.67;2.40;;;9.90;99.90;;;;;;4915849;29;20214;-69
2023/01/06 09:56:28;;;;;;;4.05;2.53;;;9.90;99.90;;;;;;4913568;29;20212;-68
2023/01/06 09:59:02;;;;;;;7.30;1.52;;;9.90;99.90;;;;;;4905788;29;20223;-69
2023/01/06 10:01:34;;;;;;;1.83;1.80;;;9.90;99.90;;;;;;4905971;29;20292;-70
2023/01/06 10:04:01;;;;;;;5.60;1.92;;;9.90;99.90;;;;;;4910300;29;20215;-70
2023/01/06 10:06:34;;;;;;;2.28;2.17;;;9.80;99.90;;;;;;4913152;29;20218;-70
2023/01/06 10:09:12;;;;;;;0.90;0.90;;;9.90;99.90;;;;;;4911104;29;20565;-71
2023/01/06 10:11:52;;;;;;;1.55;1.35;;;9.80;99.90;;;;;;4911726;29;20229;-70
2023/01/06 10:14:27;;;;;;;1.20;1.20;;;9.80;99.90;;;;;;4913893;29;20231;-70
2023/01/06 10:17:09;;;;;;;2.00;2.00;;;9.80;99.90;;;;;;4904533;29;20219;-71
2023/01/06 10:19:58;;;;;;;1.30;1.20;;;9.80;99.90;;;;;;4910184;29;20221;-69
2023/01/06 10:22:37;;;;;;;1.83;1.73;;;9.90;99.90;;;;;;4910788;29;20230;-70
2023/01/06 10:25:10;;;;;;;0.63;0.63;;;9.90;99.90;;;;;;4914260;29;20215;-71
2023/01/06 10:27:39;;;;;;;1.15;1.15;;;9.90;99.90;;;;;;4900257;29;20218;-70
2023/01/06 10:30:17;;;;;;;3.25;1.05;;;9.90;99.90;;;;;;4911662;29;20206;-70
2023/01/06 10:32:47;;;;;;;1.20;1.20;;;9.90;99.90;;;;;;4914616;29;20203;-70
2023/01/06 10:35:16;;;;;;;1.50;1.50;;;9.90;99.90;;;;;;4909549;29;20221;-70
2023/01/06 10:37:47;;;;;;;1.50;1.50;;;9.80;99.90;;;;;;4909639;29;20217;-70
2023/01/06 10:40:19;;;;;;;2.85;2.65;;;9.80;99.90;;;;;;4909905;29;20207;-70
2023/01/06 10:42:59;;;;;;;2.28;2.17;;;9.90;99.90;;;;;;4904515;29;20314;-73
2023/01/06 10:45:29;;;;;;;1.58;1.58;;;9.90;99.90;;;;;;4910141;29;20203;-71
2023/01/06 10:47:57;;;;;;;1.70;1.67;;;9.90;99.90;;;;;;4910699;29;20242;-71
2023/01/06 10:50:24;;;;;;;1.55;1.45;;;9.90;99.90;;;;;;4913320;29;20238;-69
2023/01/06 10:52:52;;;;;;;2.05;1.40;;;10.00;99.90;;;;;;4904486;29;20543;-70
2023/01/06 10:55:41;;;;;;;1.80;1.70;;;10.00;99.90;;;;;;4911894;29;20219;-70
2023/01/06 10:58:18;;;;;;;4.65;2.05;;;10.00;99.90;;;;;;4907883;29;20208;-70
2023/01/06 11:00:56;;;;;;;2.07;2.00;;;10.10;99.90;;;;;;4860996;29;1044417;-71
2023/01/06 11:03:23;;;;;;;1.65;1.65;;;10.10;99.90;;;;;;4906412;29;20215;-71
2023/01/06 11:06:01;;;;;;;1.50;1.50;;;10.10;99.90;;;;;;4915565;29;20581;-71
2023/01/06 11:08:30;;;;;;;1.50;1.50;;;10.10;99.90;;;;;;4903373;29;20213;-70
2023/01/06 11:10:57;;;;;;;2.25;2.20;;;10.20;99.90;;;;;;4903993;29;20274;-70
2023/01/06 11:13:28;;;;;;;7.05;1.80;;;10.20;99.90;;;;;;4897841;29;20248;-70
2023/01/06 11:15:56;;;;;;;1.73;1.63;;;10.20;99.90;;;;;;4908649;29;20218;-70
2023/01/06 11:18:27;;;;;;;1.05;1.05;;;10.20;99.90;;;;;;4930717;23;20601;-65
2023/01/06 11:21:06;;;;;;;2.10;2.10;;;10.30;99.90;;;;;;4907606;29;20222;-64
2023/01/06 11:23:35;;;;;;;2.53;2.53;;;10.40;99.90;;;;;;4912055;29;20557;-65
2023/01/06 11:26:07;;;;;;;1.83;1.83;;;10.30;99.90;;;;;;4910857;29;20208;-64
2023/01/06 11:28:34;;;;;;;1.50;1.50;;;10.40;99.90;;;;;;4906951;29;20235;-64
2023/01/06 11:31:05;;;;;;;2.30;2.30;;;10.40;99.90;;;;;;4885195;29;20885;-64
2023/01/06 11:33:34;;;;;;;1.92;1.85;;;10.40;99.90;;;;;;4890973;29;20229;-64
2023/01/06 11:36:09;;;;;;;1.75;1.75;;;10.30;99.90;;;;;;4892611;29;20218;-64
2023/01/06 11:38:43;;;;;;;1.90;1.45;;;10.40;99.90;;;;;;4882815;29;20224;-64
2023/01/06 11:41:12;;;;;;;1.63;1.63;;;10.30;99.90;;;;;;4891039;29;20219;-64
2023/01/06 11:43:44;;;;;;;3.08;2.53;;;10.40;99.90;;;;;;4899412;29;20211;-64
2023/01/06 11:46:13;;;;;;;2.22;2.13;;;10.40;99.90;;;;;;4905822;29;20267;-65
2023/01/06 11:48:44;;;;;;;3.63;2.53;;;10.40;99.90;;;;;;4894648;29;20238;-63
2023/01/06 11:51:11;;;;;;;3.38;2.65;;;10.30;99.90;;;;;;4903089;29;20214;-64
2023/01/06 11:53:39;;;;;;;2.25;2.15;;;10.30;99.90;;;;;;4899919;29;20216;-64
2023/01/06 11:56:17;;;;;;;1.45;1.45;;;10.30;99.90;;;;;;4884950;29;20226;-65
2023/01/06 11:58:53;;;;;;;2.10;2.05;;;10.30;99.90;;;;;;4914317;29;20232;-64
2023/01/06 12:01:27;;;;;;;1.85;1.75;;;10.30;99.90;;;;;;4882209;29;20220;-64
2023/01/06 12:04:04;;;;;;;2.33;2.22;;;10.30;99.90;;;;;;4894675;29;20266;-64
2023/01/06 12:06:34;;;;;;;1.80;1.50;;;10.20;99.90;;;;;;4893336;29;20217;-63
2023/01/06 12:09:05;;;;;;;27.02;14.80;;;10.20;99.90;;;;;;4896386;29;20233;-64
2023/01/06 12:11:43;;;;;;;0.88;0.88;;;10.10;99.90;;;;;;4914588;29;20543;-63
2023/01/06 12:14:14;;;;;;;2.10;1.38;;;10.00;99.90;;;;;;4903562;29;20217;-64
2023/01/06 12:16:55;;;;;;;1.33;1.33;;;10.00;99.90;;;;;;4894873;29;20214;-64
2023/01/06 12:19:26;;;;;;;1.63;1.52;;;10.00;99.90;;;;;;4903411;29;20236;-64
2023/01/06 12:21:54;;;;;;;1.17;0.90;;;10.00;99.90;;;;;;4898734;29;20278;-64
2023/01/06 12:24:22;;;;;;;1.30;1.30;;;10.10;99.90;;;;;;4902201;29;20281;-64
2023/01/06 12:26:52;;;;;;;2.97;2.88;;;10.10;99.90;;;;;;4895110;29;20216;-64
2023/01/06 12:29:20;;;;;;;1.17;1.10;;;10.10;99.90;;;;;;4891519;29;20317;-64
2023/01/06 12:31:55;;;;;;;0.57;0.57;;;10.20;99.90;;;;;;4895386;29;20215;-64
2023/01/06 12:34:28;;;;;;;0.80;0.80;;;10.20;99.90;;;;;;4903868;29;20213;-65
2023/01/06 12:37:01;;;;;;;0.60;0.60;;;10.30;99.90;;;;;;4886726;29;20688;-64
2023/01/06 12:39:35;;;;;;;1.40;1.30;;;10.30;99.90;;;;;;4906897;29;20229;-65
2023/01/06 12:42:10;;;;;;;2.22;1.92;;;10.40;99.90;;;;;;4902330;29;20257;-64
2023/01/06 12:44:43;;;;;;;2.42;1.95;;;10.40;99.90;;;;;;4906463;29;20213;-64
2023/01/06 12:47:16;;;;;;;1.95;1.00;;;10.40;99.90;;;;;;4905008;29;20218;-64
2023/01/06 12:49:48;;;;;;;0.85;0.85;;;10.40;99.90;;;;;;4899203;29;20614;-64
2023/01/06 12:52:19;;;;;;;1.02;1.02;;;10.30;99.90;;;;;;4889767;29;20218;-65
2023/01/06 12:54:50;;;;;;;0.43;0.43;;;10.20;99.90;;;;;;4888102;29;20538;-65
2023/01/06 12:57:38;;;;;;;0.45;0.45;;;10.20;99.90;;;;;;4887680;29;20217;-64
2023/01/06 13:00:19;;;;;;;1.77;1.67;;;10.20;99.90;;;;;;4904449;29;20286;-65
2023/01/06 13:02:57;;;;;;;1.15;0.90;;;10.20;99.90;;;;;;4907252;29;20221;-65
2023/01/06 13:05:42;;;;;;;1.23;1.23;;;10.10;99.90;;;;;;4895328;29;20209;-65
2023/01/06 13:08:23;;;;;;;8.95;1.42;;;10.10;99.90;;;;;;4893215;29;20237;-65
2023/01/06 13:10:59;;;;;;;7.00;0.70;;;10.00;99.90;;;;;;4895578;29;20555;-65
2023/01/06 13:13:42;;;;;;;0.82;0.82;;;9.90;99.90;;;;;;4898028;29;20209;-64
2023/01/06 13:16:17;;;;;;;6.32;5.43;;;9.90;99.90;;;;;;4906193;29;20198;-65
2023/01/06 13:18:55;;;;;;;2.20;0.80;;;9.80;99.90;;;;;;4895400;29;20257;-65
2023/01/06 13:21:24;;;;;;;1.75;1.30;;;9.80;99.90;;;;;;4905151;29;20209;-66
2023/01/06 13:24:09;;;;;;;11.05;1.90;;;9.70;99.90;;;;;;4900630;29;20241;-65
2023/01/06 13:26:57;;;;;;;2.67;1.35;;;9.70;99.90;;;;;;4888816;29;20691;-66
2023/01/06 13:29:38;;;;;;;0.80;0.80;;;9.70;99.90;;;;;;4896269;29;20249;-66
2023/01/06 13:32:28;;;;;;;9.38;1.10;;;9.70;99.90;;;;;;4893277;29;20217;-66
2023/01/06 13:35:20;;;;;;;0.80;0.80;;;9.70;99.90;;;;;;4897256;29;20231;-66
2023/01/06 13:37:57;;;;;;;1.02;1.00;;;9.70;99.90;;;;;;4888577;29;20655;-66
2023/01/06 13:40:28;;;;;;;0.85;0.85;;;9.70;99.90;;;;;;4893737;29;20224;-66
2023/01/06 13:43:03;;;;;;;2.08;0.95;;;9.70;99.90;;;;;;4893228;29;20333;-66
2023/01/06 13:45:33;;;;;;;0.93;0.93;;;9.70;99.90;;;;;;4894597;29;20210;-64
2023/01/06 13:48:07;;;;;;;0.50;0.50;;;9.80;99.90;;;;;;4890940;29;20314;-66
2023/01/06 13:50:35;;;;;;;0.50;0.50;;;9.80;99.90;;;;;;4911333;29;20625;-67
2023/01/06 13:53:02;;;;;;;0.57;0.55;;;9.80;99.90;;;;;;4895897;29;20217;-66
2023/01/06 13:55:31;;;;;;;0.50;0.50;;;9.80;99.90;;;;;;4897014;29;20300;-66
2023/01/06 13:58:36;;;;;;;7.93;3.90;;;9.80;99.90;;;;;;4898694;29;20543;-67
2023/01/06 14:01:10;;;;;;;2.47;1.17;;;9.80;99.90;;;;;;4895067;29;20214;-67
2023/01/06 14:03:38;;;;;;;5.45;2.97;;;9.90;99.90;;;;;;4901436;29;20348;-67
2023/01/06 14:06:05;;;;;;;0.88;0.88;;;9.90;99.90;;;;;;4891804;29;20218;-67
2023/01/06 14:08:37;;;;;;;0.90;0.90;;;9.90;99.90;;;;;;4881139;29;20368;-67
2023/01/06 14:11:19;;;;;;;3.10;0.75;;;9.80;99.90;;;;;;4892932;29;20213;-66
2023/01/06 14:13:52;;;;;;;0.90;0.90;;;9.90;99.90;;;;;;4902429;29;20655;-67
2023/01/06 14:16:20;;;;;;;0.30;0.30;;;9.80;99.90;;;;;;4894258;29;20568;-67
2023/01/06 14:18:50;;;;;;;0.43;0.43;;;9.80;99.90;;;;;;4895932;29;20742;-67
2023/01/06 14:21:23;;;;;;;0.80;0.80;;;9.80;99.90;;;;;;4894673;29;20211;-67
2023/01/06 14:24:00;;;;;;;3.50;1.63;;;9.70;99.90;;;;;;4902111;29;20642;-65
2023/01/06 14:26:47;;;;;;;1.95;1.85;;;9.70;99.90;;;;;;4886300;29;20260;-65
2023/01/06 14:29:46;;;;;;;2.75;1.50;;;9.70;99.90;;;;;;4896726;29;20235;-65
2023/01/06 14:32:46;;;;;;;2.85;2.40;;;9.60;99.90;;;;;;4889098;29;20241;-65
2023/01/06 14:35:17;;;;;;;1.30;1.20;;;9.60;99.90;;;;;;4892193;29;20210;-65
2023/01/06 14:37:50;;;;;;;1.33;1.10;;;9.50;99.90;;;;;;4904730;29;20294;-65
2023/01/06 14:40:21;;;;;;;6.53;2.30;;;9.50;99.90;;;;;;4916068;29;20588;-65
2023/01/06 14:42:48;;;;;;;1.17;1.17;;;9.40;99.90;;;;;;4898775;29;20241;-66
2023/01/06 14:45:19;;;;;;;0.63;0.63;;;9.40;99.90;;;;;;4904376;29;20213;-65
2023/01/06 14:47:49;;;;;;;1.95;0.70;;;9.30;99.90;;;;;;4892646;29;20691;-65
2023/01/06 14:50:20;;;;;;;9.15;1.80;;;9.30;99.90;;;;;;4886797;29;20213;-65
2023/01/06 14:52:52;;;;;;;2.15;1.17;;;9.30;99.90;;;;;;4902086;29;20213;-66
2023/01/06 14:55:21;;;;;;;1.00;1.00;;;9.20;99.90;;;;;;4898957;29;20221;-64
2023/01/06 14:57:48;;;;;;;0.82;0.82;;;9.20;99.90;;;;;;4897851;29;20685;-64
2023/01/06 15:00:19;;;;;;;23.95;5.85;;;9.10;99.90;;;;;;4908359;29;20205;-65
2023/01/06 15:02:47;;;;;;;3.45;1.85;;;9.10;99.90;;;;;;4905968;29;20225;-65
2023/01/06 15:05:23;;;;;;;2.00;2.00;;;9.00;99.90;;;;;;4901676;29;20216;-65
2023/01/06 15:07:58;;;;;;;5.35;2.53;;;9.00;99.90;;;;;;4902930;29;20679;-65
2023/01/06 15:10:26;;;;;;;7.15;3.95;;;8.90;99.90;;;;;;4899344;29;20213;-65
2023/01/06 15:12:54;;;;;;;2.78;2.58;;;8.90;99.90;;;;;;4908139;29;20213;-65
2023/01/06 15:15:23;;;;;;;5.93;4.15;;;8.80;99.90;;;;;;4897955;29;20213;-64
2023/01/06 15:17:51;;;;;;;3.95;3.60;;;8.70;99.90;;;;;;4898231;29;20216;-64
2023/01/06 15:20:18;;;;;;;5.38;3.45;;;8.70;99.90;;;;;;4899326;29;20223;-64
2023/01/06 15:22:49;;;;;;;4.10;3.75;;;8.70;99.90;;;;;;4906115;29;20734;-64
2023/01/06 15:25:21;;;;;;;4.57;1.70;;;8.60;99.90;;;;;;4916065;29;20213;-66
2023/01/06 15:27:48;;;;;;;4.32;4.18;;;8.60;99.90;;;;;;4915713;29;20295;-66
2023/01/06 15:30:17;;;;;;;2.15;2.00;;;8.50;99.90;;;;;;4915701;29;20209;-66
2023/01/06 15:32:45;;;;;;;3.38;2.55;;;8.50;99.90;;;;;;4915000;29;20205;-66
2023/01/06 15:35:16;;;;;;;3.95;3.28;;;8.40;99.90;;;;;;4915493;29;20213;-66
2023/01/06 15:37:47;;;;;;;2.30;2.10;;;8.40;99.90;;;;;;4904722;29;20217;-66
2023/01/06 15:40:19;;;;;;;1.45;1.35;;;8.40;99.90;;;;;;4902943;29;20227;-64
2023/01/06 15:42:46;;;;;;;2.50;1.75;;;8.40;99.90;;;;;;4896408;29;20237;-65
2023/01/06 15:45:24;;;;;;;2.13;2.03;;;8.30;99.90;;;;;;4896330;29;20226;-64
2023/01/06 15:47:51;;;;;;;3.45;3.22;;;8.30;99.90;;;;;;4895706;29;20222;-64
2023/01/06 15:50:19;;;;;;;2.83;2.63;;;8.30;99.90;;;;;;4893399;29;20568;-64
2023/01/06 15:52:51;;;;;;;2.10;2.08;;;8.30;99.90;;;;;;4897831;29;20209;-64
2023/01/06 15:55:24;;;;;;;2.20;2.10;;;8.20;99.90;;;;;;4902715;29;20221;-66
2023/01/06 15:57:56;;;;;;;3.28;3.08;;;8.20;99.90;;;;;;4905318;29;20593;-64
2023/01/06 16:00:25;;;;;;;3.90;3.53;;;8.20;99.90;;;;;;4894253;29;20217;-65
2023/01/06 16:02:51;;;;;;;8.27;5.47;;;8.10;99.90;;;;;;4895738;29;20237;-65
2023/01/06 16:05:33;;;;;;;3.35;3.05;;;8.00;99.90;;;;;;4903371;29;20215;-65
2023/01/06 16:08:03;;;;;;;5.18;4.20;;;8.00;99.90;;;;;;4911151;29;20230;-65
2023/01/06 16:10:36;;;;;;;2.55;2.35;;;8.00;99.90;;;;;;4904731;29;20218;-65
2023/01/06 16:13:17;;;;;;;3.88;3.60;;;8.00;99.90;;;;;;4903863;29;20280;-65
2023/01/06 16:15:46;;;;;;;2.40;2.20;;;8.00;99.90;;;;;;4915307;29;20197;-64
2023/01/06 16:18:13;;;;;;;3.67;3.47;;;7.90;99.90;;;;;;4912935;29;20263;-65
2023/01/06 16:20:40;;;;;;;2.17;2.13;;;7.90;99.90;;;;;;4907156;29;20244;-65
2023/01/06 16:23:20;;;;;;;5.50;2.10;;;7.90;99.90;;;;;;4914148;29;20228;-65
2023/01/06 16:25:47;;;;;;;2.90;2.10;;;7.80;99.90;;;;;;4915121;29;20197;-65
2023/01/06 16:28:20;;;;;;;2.15;1.77;;;7.80;99.90;;;;;;4898841;29;20248;-66
2023/01/06 16:31:03;;;;;;;2.13;2.03;;;7.80;99.90;;;;;;4910051;29;20566;-65
2023/01/06 16:33:37;;;;;;;1.48;1.48;;;7.80;99.90;;;;;;4907720;29;20201;-65
2023/01/06 16:36:04;;;;;;;1.65;1.52;;;7.80;99.90;;;;;;4911671;29;20293;-65
2023/01/06 16:38:38;;;;;;;2.53;1.38;;;7.70;99.90;;;;;;4906885;29;20241;-66
2023/01/06 16:41:05;;;;;;;0.70;0.70;;;7.70;99.90;;;;;;4911883;29;20205;-65
2023/01/06 16:43:31;;;;;;;4.88;1.83;;;7.70;99.90;;;;;;4900540;29;20280;-66
2023/01/06 16:46:02;;;;;;;3.53;3.30;;;7.70;99.90;;;;;;4905445;29;20542;-66
2023/01/06 16:48:29;;;;;;;8.18;4.38;;;7.60;99.90;;;;;;4901328;29;20619;-66
2023/01/06 16:50:56;;;;;;;3.05;1.85;;;7.60;99.90;;;;;;4903373;29;20209;-66
2023/01/06 16:53:25;;;;;;;2.05;1.23;;;7.50;99.90;;;;;;4894893;29;20197;-66
2023/01/06 16:55:55;;;;;;;2.25;2.20;;;7.50;99.90;;;;;;4895713;29;20217;-65
2023/01/06 16:58:24;;;;;;;1.35;1.35;;;7.50;99.90;;;;;;4894191;29;20313;-66
2023/01/06 17:00:53;;;;;;;5.57;2.53;;;7.40;99.90;;;;;;4898998;29;20587;-66
2023/01/06 17:03:21;;;;;;;7.18;2.92;;;7.40;99.90;;;;;;4896255;29;20314;-66
2023/01/06 17:05:48;;;;;;;3.70;2.05;;;7.40;99.90;;;;;;4906661;29;20227;-66
2023/01/06 17:08:16;;;;;;;2.70;1.83;;;7.40;99.90;;;;;;4913682;29;20229;-65
2023/01/06 17:10:44;;;;;;;2.33;2.17;;;7.40;99.90;;;;;;4913853;29;20208;-66
2023/01/06 17:16:02;;;;;;;1.83;1.80;;;7.40;99.90;;;;;;4898952;29;20303;-65
2023/01/06 17:18:30;;;;;;;2.83;2.67;;;7.30;99.90;;;;;;4910860;23;20319;-68
2023/01/06 17:21:01;;;;;;;3.05;1.40;;;7.30;99.90;;;;;;4890497;29;20305;-71
2023/01/06 17:23:28;;;;;;;1.92;1.83;;;7.30;99.90;;;;;;4880095;29;20221;-71
2023/01/06 17:26:01;;;;;;;5.05;2.83;;;7.20;99.90;;;;;;4886266;29;20301;-70
2023/01/06 17:28:31;;;;;;;2.22;2.22;;;7.20;99.90;;;;;;4892947;29;20221;-71
2023/01/06 17:30:59;;;;;;;1.45;1.35;;;7.10;99.90;;;;;;4884688;29;20213;-70
2023/01/06 17:33:29;;;;;;;4.70;1.23;;;7.10;99.90;;;;;;4891259;29;20210;-71
2023/01/06 17:35:57;;;;;;;1.92;1.73;;;7.10;99.90;;;;;;4897526;29;20262;-70
2023/01/06 17:38:25;;;;;;;1.52;1.42;;;7.10;99.90;;;;;;4878939;29;20656;-71
2023/01/06 17:40:53;;;;;;;2.30;2.20;;;7.20;99.90;;;;;;4893086;29;20227;-69
2023/01/06 17:43:32;;;;;;;4.38;3.38;;;7.10;99.90;;;;;;4896482;29;20237;-69
2023/01/06 17:46:01;;;;;;;3.58;3.25;;;7.10;99.90;;;;;;4883787;29;20227;-69
2023/01/06 17:48:28;;;;;;;8.45;4.60;;;7.10;99.90;;;;;;4885061;29;21154;-69
2023/01/06 17:50:57;;;;;;;3.95;3.42;;;7.00;99.90;;;;;;4881610;29;20245;-70
2023/01/06 17:56:13;;;;;;;10.45;2.95;;;7.00;99.90;;;;;;4892072;29;20289;-70
2023/01/06 17:58:43;;;;;;;2.20;1.90;;;6.90;99.90;;;;;;4887536;29;20221;-69
2023/01/06 18:01:15;;;;;;;4.53;4.13;;;6.90;99.90;;;;;;4876675;29;20214;-69
2023/01/06 18:03:43;;;;;;;6.78;3.00;;;6.80;99.90;;;;;;4877650;29;20244;-68
2023/01/06 18:06:24;;;;;;;2.17;2.05;;;6.70;99.90;;;;;;4877770;29;20207;-70
2023/01/06 18:08:58;;;;;;;3.60;2.30;;;6.70;99.90;;;;;;4884086;29;20229;-70
2023/01/06 18:11:34;;;;;;;3.38;3.20;;;6.70;99.90;;;;;;4876213;29;20240;-70
2023/01/06 18:14:18;;;;;;;4.32;3.97;;;6.60;99.90;;;;;;4882206;29;20212;-70
2023/01/06 18:16:46;;;;;;;2.60;2.40;;;6.60;99.90;;;;;;4883375;29;20270;-70
2023/01/06 18:19:23;;;;;;;5.40;4.75;;;6.60;99.90;;;;;;4878412;29;20251;-71